Time;durP1;ratioP1;P1;durP2;ratioP2;P2;SDS_P1;SDS_P2;PMS_P1;PMS_P2;Temp;Humidity;BMP_temperature;BMP_pressure;BME280_temperature;BME280_humidity;BME280_pressure;Samples;Min_cycle;Max_cycle;Signal;HPM_P1;HPM_P2
2022/12/11 05:02:09;;;;;;;0.52;0.52;;;-0.50;99.90;;;;;;5191815;23;20239;-66
2022/12/11 05:04:36;;;;;;;2.65;1.63;;;-0.60;99.90;;;;;;4982514;28;20298;-66
2022/12/11 05:07:03;;;;;;;1.33;1.25;;;-0.60;99.90;;;;;;4986601;28;20198;-67
2022/12/11 05:09:30;;;;;;;8.95;4.55;;;-0.70;99.90;;;;;;4988866;28;20210;-67
2022/12/11 05:11:56;;;;;;;1.20;1.20;;;-0.80;99.90;;;;;;4965685;28;20278;-67
2022/12/11 05:14:25;;;;;;;0.98;0.98;;;-0.80;99.90;;;;;;4992319;23;20183;-65
2022/12/11 05:16:51;;;;;;;0.30;0.30;;;-0.90;99.90;;;;;;4974812;28;20214;-65
2022/12/11 05:19:19;;;;;;;1.85;0.55;;;-1.00;99.90;;;;;;4969960;28;20206;-65
2022/12/11 05:21:46;;;;;;;0.57;0.57;;;-1.00;99.90;;;;;;4970894;28;20214;-66
2022/12/11 05:24:13;;;;;;;0.20;0.20;;;-1.10;99.90;;;;;;4969112;28;20217;-65
2022/12/11 05:26:39;;;;;;;0.82;0.77;;;-1.20;99.90;;;;;;4966276;28;20202;-66
2022/12/11 05:29:06;;;;;;;0.88;0.85;;;-1.30;99.90;;;;;;4973895;28;20206;-66
2022/12/11 05:31:33;;;;;;;1.38;1.38;;;-1.30;99.90;;;;;;4972460;28;20211;-66
2022/12/11 05:33:59;;;;;;;1.17;0.88;;;-1.30;99.90;;;;;;4966080;28;20312;-66
2022/12/11 05:36:31;;;;;;;2.45;2.13;;;-1.40;99.90;;;;;;4967541;28;20712;-66
2022/12/11 05:38:59;;;;;;;3.80;2.03;;;-1.40;99.90;;;;;;4966328;28;20235;-65
2022/12/11 05:41:28;;;;;;;2.00;1.77;;;-1.40;99.90;;;;;;4973990;28;20209;-65
2022/12/11 05:43:55;;;;;;;0.93;0.93;;;-1.40;99.90;;;;;;4966048;28;20207;-66
2022/12/11 05:46:23;;;;;;;1.10;1.10;;;-1.50;99.90;;;;;;4968689;28;20243;-65
2022/12/11 05:48:52;;;;;;;7.10;2.60;;;-1.50;99.90;;;;;;4970472;28;20210;-65
2022/12/11 05:51:19;;;;;;;0.17;0.17;;;-1.50;99.90;;;;;;4969849;28;20212;-65
2022/12/11 05:53:49;;;;;;;1.05;0.95;;;-1.50;99.90;;;;;;4963251;28;20205;-65
2022/12/11 05:56:17;;;;;;;2.05;1.95;;;-1.60;99.90;;;;;;4965621;28;20634;-66
2022/12/11 05:58:47;;;;;;;2.40;2.30;;;-1.60;99.90;;;;;;4973043;28;20270;-66
2022/12/11 06:01:17;;;;;;;2.45;2.35;;;-1.60;99.90;;;;;;4973308;28;20298;-66
2022/12/11 06:03:44;;;;;;;1.00;1.00;;;-1.70;99.90;;;;;;4972437;28;20260;-66
2022/12/11 06:06:11;;;;;;;1.25;1.25;;;-1.70;99.90;;;;;;4967270;28;20229;-66
2022/12/11 06:08:37;;;;;;;4.55;2.78;;;-1.70;99.90;;;;;;4972754;28;20210;-65
2022/12/11 06:11:06;;;;;;;4.30;3.47;;;-1.70;99.90;;;;;;4970776;28;20206;-66
2022/12/11 06:13:33;;;;;;;1.23;1.20;;;-1.70;99.90;;;;;;4971564;28;20777;-66
2022/12/11 06:16:01;;;;;;;5.45;2.58;;;-1.80;99.90;;;;;;4973847;28;20260;-66
2022/12/11 06:18:28;;;;;;;1.70;1.70;;;-1.80;99.90;;;;;;4972948;28;20270;-66
2022/12/11 06:20:55;;;;;;;2.67;1.20;;;-1.90;99.90;;;;;;4971991;28;20212;-66
2022/12/11 06:23:22;;;;;;;3.17;3.08;;;-1.90;99.90;;;;;;4971742;28;20288;-66
2022/12/11 06:25:49;;;;;;;3.13;3.10;;;-1.90;99.90;;;;;;4972078;28;20663;-65
2022/12/11 06:28:17;;;;;;;3.15;3.05;;;-1.90;99.90;;;;;;4973897;28;20209;-66
2022/12/11 06:30:44;;;;;;;7.15;2.45;;;-2.00;99.90;;;;;;4973663;28;20300;-66
2022/12/11 06:33:12;;;;;;;2.33;2.33;;;-2.00;99.90;;;;;;4973533;28;20200;-66
2022/12/11 06:35:39;;;;;;;2.78;2.67;;;-2.10;99.90;;;;;;4971984;28;20253;-66
2022/12/11 06:38:05;;;;;;;1.42;1.33;;;-2.10;99.90;;;;;;4965014;28;20225;-66
2022/12/11 06:40:32;;;;;;;1.50;1.40;;;-2.10;99.90;;;;;;4969635;28;20209;-65
2022/12/11 06:42:59;;;;;;;1.55;1.55;;;-2.10;99.90;;;;;;4969293;28;20214;-65
2022/12/11 06:45:27;;;;;;;0.77;0.77;;;-2.10;99.90;;;;;;4972565;28;20232;-66
2022/12/11 06:47:54;;;;;;;1.55;1.55;;;-2.20;99.90;;;;;;4967550;28;20217;-65
2022/12/11 06:50:21;;;;;;;2.30;1.05;;;-2.20;99.90;;;;;;4965635;28;20209;-65
2022/12/11 06:52:48;;;;;;;2.20;2.20;;;-2.20;99.90;;;;;;4971803;28;20755;-65
2022/12/11 06:55:14;;;;;;;1.20;1.17;;;-2.20;99.90;;;;;;4970594;28;20624;-65
2022/12/11 06:57:41;;;;;;;5.15;4.85;;;-2.30;99.90;;;;;;4963961;28;20260;-65
2022/12/11 07:00:09;;;;;;;6.50;4.35;;;-2.30;99.90;;;;;;4970306;28;20213;-65
2022/12/11 07:02:37;;;;;;;3.75;3.55;;;-2.30;99.90;;;;;;4971055;28;20587;-64
2022/12/11 07:05:05;;;;;;;1.38;1.38;;;-2.30;99.90;;;;;;4969962;28;20571;-63
2022/12/11 07:07:32;;;;;;;3.38;1.85;;;-2.40;99.90;;;;;;4968312;28;20234;-65
2022/12/11 07:09:58;;;;;;;0.10;0.10;;;-2.40;99.90;;;;;;4966389;28;20201;-64
2022/12/11 07:12:25;;;;;;;1.83;1.05;;;-2.50;99.90;;;;;;4964072;28;20317;-65
2022/12/11 07:14:52;;;;;;;1.55;1.45;;;-2.50;99.90;;;;;;4968049;28;20312;-64
2022/12/11 07:17:19;;;;;;;0.95;0.95;;;-2.50;99.90;;;;;;4972736;28;20549;-65
2022/12/11 07:19:47;;;;;;;3.83;1.75;;;-2.60;99.90;;;;;;4972573;28;20219;-65
2022/12/11 07:22:13;;;;;;;0.90;0.85;;;-2.60;99.90;;;;;;4971931;28;20722;-64
2022/12/11 07:24:40;;;;;;;4.10;3.90;;;-2.70;99.90;;;;;;4963858;28;20556;-64
2022/12/11 07:27:08;;;;;;;1.13;1.05;;;-2.70;99.90;;;;;;4969803;28;20201;-64
2022/12/11 07:29:35;;;;;;;1.27;1.27;;;-2.70;99.90;;;;;;4968599;28;20625;-64
2022/12/11 07:32:01;;;;;;;0.95;0.95;;;-2.70;99.90;;;;;;4961705;28;20233;-65
2022/12/11 07:34:28;;;;;;;2.80;2.60;;;-2.60;99.90;;;;;;4971120;28;20986;-65
2022/12/11 07:36:56;;;;;;;0.50;0.50;;;-2.60;99.90;;;;;;4972651;28;20208;-65
2022/12/11 07:39:23;;;;;;;3.22;2.42;;;-2.60;99.90;;;;;;4965624;28;20857;-65
2022/12/11 07:41:50;;;;;;;3.30;3.20;;;-2.60;99.90;;;;;;4965682;28;20232;-64
2022/12/11 07:44:17;;;;;;;0.65;0.65;;;-2.60;99.90;;;;;;4969690;28;20219;-65
2022/12/11 07:46:44;;;;;;;0.40;0.40;;;-2.60;99.90;;;;;;4972401;28;20208;-65
2022/12/11 07:49:10;;;;;;;4.35;4.10;;;-2.60;99.90;;;;;;4972263;28;20205;-64
2022/12/11 07:51:38;;;;;;;3.20;2.53;;;-2.50;99.90;;;;;;4970425;28;20213;-65
2022/12/11 07:54:10;;;;;;;1.67;1.67;;;-2.50;99.90;;;;;;4971141;28;20591;-64
2022/12/11 07:56:37;;;;;;;1.02;1.02;;;-2.50;99.90;;;;;;4972827;28;20209;-64
2022/12/11 07:59:05;;;;;;;1.50;1.05;;;-2.40;99.90;;;;;;4973831;28;20282;-64
2022/12/11 08:01:34;;;;;;;2.10;1.27;;;-2.50;99.90;;;;;;4974581;28;20205;-64
2022/12/11 08:04:01;;;;;;;2.70;2.70;;;-2.50;99.90;;;;;;4974411;28;20294;-65
2022/12/11 08:06:30;;;;;;;2.88;2.85;;;-2.50;99.90;;;;;;4976504;28;20253;-64
2022/12/11 08:08:58;;;;;;;1.10;1.10;;;-2.50;99.90;;;;;;4966575;28;20210;-64
2022/12/11 08:11:27;;;;;;;5.85;4.35;;;-2.50;99.90;;;;;;4969621;28;20203;-63
2022/12/11 08:13:54;;;;;;;3.65;1.83;;;-2.40;99.90;;;;;;4971341;28;20212;-64
2022/12/11 08:16:21;;;;;;;2.90;2.65;;;-2.40;99.90;;;;;;4971966;28;20716;-64
2022/12/11 08:18:48;;;;;;;3.45;2.75;;;-2.40;99.90;;;;;;4972659;28;20599;-64
2022/12/11 08:21:17;;;;;;;1.50;1.50;;;-2.40;99.90;;;;;;4972092;28;20232;-64
2022/12/11 08:23:44;;;;;;;1.30;1.10;;;-2.40;99.90;;;;;;4971178;28;20213;-64
2022/12/11 08:26:13;;;;;;;2.22;2.22;;;-2.40;99.90;;;;;;4966251;28;20228;-64
2022/12/11 08:28:41;;;;;;;1.05;1.00;;;-2.30;99.90;;;;;;4963811;28;20209;-65
2022/12/11 08:31:10;;;;;;;5.20;4.80;;;-2.30;99.90;;;;;;4967625;28;20210;-65
2022/12/11 08:33:37;;;;;;;6.70;6.30;;;-2.30;99.90;;;;;;4965913;28;20675;-63
2022/12/11 08:36:05;;;;;;;2.80;2.45;;;-2.20;99.90;;;;;;4971494;28;20232;-65
2022/12/11 08:38:31;;;;;;;4.13;2.70;;;-2.20;99.90;;;;;;4970114;28;20244;-64
2022/12/11 08:40:58;;;;;;;1.95;1.80;;;-2.20;99.90;;;;;;4969632;28;20216;-64
2022/12/11 08:43:25;;;;;;;3.60;3.40;;;-2.20;99.90;;;;;;4969594;28;20263;-65
2022/12/11 08:45:53;;;;;;;0.73;0.73;;;-2.10;99.90;;;;;;4970554;28;20580;-65
2022/12/11 08:48:20;;;;;;;1.40;1.40;;;-2.10;99.90;;;;;;4965639;28;20202;-65
2022/12/11 08:50:46;;;;;;;3.03;1.10;;;-2.10;99.90;;;;;;4968613;28;20296;-65
2022/12/11 08:53:13;;;;;;;3.42;3.22;;;-2.10;99.90;;;;;;4970715;28;20213;-64
2022/12/11 08:55:40;;;;;;;0.93;0.93;;;-2.00;99.90;;;;;;4969711;28;20296;-63
2022/12/11 08:58:07;;;;;;;3.67;2.60;;;-2.00;99.90;;;;;;4970441;28;20217;-64
2022/12/11 09:00:34;;;;;;;2.08;1.63;;;-2.00;99.90;;;;;;4970152;28;20299;-65
2022/12/11 09:03:02;;;;;;;9.27;2.38;;;-1.90;99.90;;;;;;4969893;28;20214;-64
2022/12/11 09:05:29;;;;;;;1.52;1.52;;;-1.90;99.90;;;;;;4968868;28;20340;-64
2022/12/11 09:07:55;;;;;;;0.70;0.70;;;-1.80;99.90;;;;;;4969313;28;20203;-65
2022/12/11 09:10:22;;;;;;;3.70;3.40;;;-1.80;99.90;;;;;;4969340;28;20221;-64
2022/12/11 09:12:49;;;;;;;4.47;3.00;;;-1.80;99.90;;;;;;4966603;28;20213;-65
2022/12/11 09:15:16;;;;;;;2.20;2.20;;;-1.70;99.90;;;;;;4970540;28;20238;-65
2022/12/11 09:17:43;;;;;;;0.85;0.85;;;-1.70;99.90;;;;;;4966263;28;20222;-64
2022/12/11 09:20:11;;;;;;;1.67;1.58;;;-1.70;99.90;;;;;;4968777;28;20234;-66
2022/12/11 09:22:38;;;;;;;2.90;2.70;;;-1.60;99.90;;;;;;4970583;28;20252;-66
2022/12/11 09:25:06;;;;;;;2.28;2.28;;;-1.60;99.90;;;;;;4970636;28;20235;-65
2022/12/11 09:27:34;;;;;;;2.33;2.22;;;-1.60;99.90;;;;;;4972664;28;20272;-64
2022/12/11 09:30:00;;;;;;;3.80;1.13;;;-1.60;99.90;;;;;;4971824;28;20198;-64
2022/12/11 09:32:27;;;;;;;1.15;1.15;;;-1.60;99.90;;;;;;4974493;28;20205;-65
2022/12/11 09:34:54;;;;;;;1.27;1.27;;;-1.50;99.90;;;;;;4974399;28;20233;-64
2022/12/11 09:37:22;;;;;;;1.20;1.20;;;-1.50;99.90;;;;;;4978451;28;20202;-64
2022/12/11 09:39:48;;;;;;;1.27;1.27;;;-1.50;99.90;;;;;;4970090;28;20233;-64
2022/12/11 09:42:21;;;;;;;2.67;1.85;;;-1.40;99.90;;;;;;4968247;28;20210;-64
2022/12/11 09:44:51;;;;;;;1.20;0.95;;;-1.40;99.90;;;;;;4969736;28;20226;-64
2022/12/11 09:47:23;;;;;;;3.35;1.75;;;-1.40;99.90;;;;;;4974481;28;20206;-64
2022/12/11 09:49:55;;;;;;;1.55;1.50;;;-1.40;99.90;;;;;;4973820;28;20202;-65
2022/12/11 09:52:31;;;;;;;0.55;0.55;;;-1.30;99.90;;;;;;4972829;28;20308;-64
2022/12/11 09:55:01;;;;;;;1.58;1.55;;;-1.20;99.90;;;;;;4965993;28;20606;-64
2022/12/11 09:57:45;;;;;;;2.42;2.13;;;-1.20;99.90;;;;;;4969574;28;20218;-64
2022/12/11 10:00:26;;;;;;;0.95;0.95;;;-1.10;99.90;;;;;;4966122;28;20234;-65
2022/12/11 10:03:26;;;;;;;1.75;1.63;;;-1.00;99.90;;;;;;4967891;28;20616;-66
2022/12/11 10:06:00;;;;;;;9.77;2.92;;;-1.00;99.90;;;;;;4931386;28;20234;-66
2022/12/11 10:08:33;;;;;;;7.75;3.92;;;-1.00;99.90;;;;;;4970980;28;20206;-66
2022/12/11 10:11:15;;;;;;;1.67;1.58;;;-0.90;99.90;;;;;;4965519;28;20206;-67
2022/12/11 10:13:54;;;;;;;8.18;3.22;;;-0.90;99.90;;;;;;4973223;28;20201;-66
2022/12/11 10:16:32;;;;;;;2.78;2.58;;;-0.80;99.90;;;;;;4971179;28;20320;-65
2022/12/11 10:18:59;;;;;;;1.92;1.80;;;-0.80;99.90;;;;;;4971272;28;20632;-66
2022/12/11 10:21:27;;;;;;;2.22;2.03;;;-0.70;99.90;;;;;;4972189;28;20207;-67
2022/12/11 10:24:00;;;;;;;4.10;3.78;;;-0.70;99.90;;;;;;4969280;28;20577;-68
2022/12/11 10:26:29;;;;;;;5.97;3.53;;;-0.70;99.90;;;;;;4965588;28;20697;-66
2022/12/11 10:29:00;;;;;;;2.30;2.30;;;-0.60;99.90;;;;;;4972313;28;20214;-68
2022/12/11 10:31:38;;;;;;;3.05;2.95;;;-0.60;99.90;;;;;;4965152;28;20197;-66
2022/12/11 10:34:12;;;;;;;3.30;3.05;;;-0.60;99.90;;;;;;4970453;28;20229;-66
2022/12/11 10:36:40;;;;;;;3.55;2.67;;;-0.50;99.90;;;;;;4966651;28;20306;-66
2022/12/11 10:39:15;;;;;;;5.40;0.93;;;-0.50;99.90;;;;;;4968521;28;20222;-65
2022/12/11 10:41:43;;;;;;;2.45;2.35;;;-0.50;99.90;;;;;;4973375;28;20214;-66
2022/12/11 10:44:21;;;;;;;2.58;2.58;;;-0.40;99.90;;;;;;4973258;28;20207;-66
2022/12/11 10:46:49;;;;;;;2.45;2.03;;;-0.40;99.90;;;;;;4972639;28;20211;-68
2022/12/11 10:49:23;;;;;;;1.35;1.25;;;-0.30;99.90;;;;;;4964403;28;20202;-67
2022/12/11 10:51:51;;;;;;;3.28;3.15;;;-0.30;99.90;;;;;;4972134;28;20269;-67
2022/12/11 10:54:32;;;;;;;4.55;2.28;;;-0.30;99.90;;;;;;4960297;28;20686;-68
2022/12/11 10:57:01;;;;;;;1.23;1.13;;;-0.20;99.90;;;;;;4971602;28;20218;-67
2022/12/11 10:59:33;;;;;;;0.85;0.85;;;-0.20;99.90;;;;;;4970893;28;20599;-66
2022/12/11 11:02:00;;;;;;;1.67;1.63;;;-0.10;99.90;;;;;;4970445;28;20210;-66
2022/12/11 11:04:31;;;;;;;3.33;3.22;;;-0.10;99.90;;;;;;4969018;28;20272;-67
2022/12/11 11:07:02;;;;;;;1.92;1.83;;;-0.10;99.90;;;;;;4973789;28;20293;-66
2022/12/11 11:09:34;;;;;;;2.28;1.77;;;-0.10;99.90;;;;;;4963515;28;20219;-69
2022/12/11 11:12:01;;;;;;;0.95;0.95;;;-0.10;99.90;;;;;;4973574;28;20279;-67
2022/12/11 11:14:28;;;;;;;1.88;1.35;;;-0.10;99.90;;;;;;4968174;28;20243;-66
2022/12/11 11:16:57;;;;;;;2.00;1.92;;;-0.10;99.90;;;;;;4982324;23;20919;-68
2022/12/11 11:19:26;;;;;;;0.70;0.70;;;0.00;99.90;;;;;;4951138;29;20222;-69
2022/12/11 11:21:57;;;;;;;4.15;3.78;;;0.00;99.90;;;;;;4951824;29;20219;-69
2022/12/11 11:24:34;;;;;;;1.38;1.38;;;0.10;99.90;;;;;;4949836;29;20762;-68
2022/12/11 11:27:01;;;;;;;4.10;3.75;;;0.10;99.90;;;;;;4949451;29;20236;-69
2022/12/11 11:29:31;;;;;;;1.38;0.93;;;0.00;99.90;;;;;;4944335;29;20270;-69
2022/12/11 11:32:04;;;;;;;2.40;2.28;;;0.10;99.90;;;;;;4943937;29;20216;-69
2022/12/11 11:34:30;;;;;;;2.03;1.88;;;0.10;99.90;;;;;;4947572;29;20211;-69
2022/12/11 11:37:04;;;;;;;1.05;1.05;;;0.10;99.90;;;;;;4945013;29;20260;-69
2022/12/11 11:39:37;;;;;;;2.65;1.45;;;0.10;99.90;;;;;;4950653;29;20278;-69
2022/12/11 11:42:10;;;;;;;2.75;2.13;;;0.10;99.90;;;;;;4950941;29;20621;-70
2022/12/11 11:44:41;;;;;;;3.20;1.60;;;0.10;99.90;;;;;;4943524;29;20214;-69
2022/12/11 11:47:15;;;;;;;1.13;1.13;;;0.20;99.90;;;;;;4943121;29;20224;-70
2022/12/11 11:49:50;;;;;;;4.10;1.90;;;0.20;99.90;;;;;;4944873;29;20318;-69
2022/12/11 11:52:24;;;;;;;2.92;2.03;;;0.20;99.90;;;;;;4948695;29;20218;-70
2022/12/11 11:54:59;;;;;;;3.03;2.83;;;0.20;99.90;;;;;;4934287;29;20211;-70
2022/12/11 11:57:33;;;;;;;2.08;1.98;;;0.20;99.90;;;;;;4944466;29;20236;-68
2022/12/11 12:00:09;;;;;;;1.73;1.73;;;0.20;99.90;;;;;;4936968;29;20226;-69
2022/12/11 12:02:37;;;;;;;2.47;1.63;;;0.20;99.90;;;;;;4943489;29;20205;-69
2022/12/11 12:05:04;;;;;;;2.08;1.98;;;0.20;99.90;;;;;;4949262;29;20308;-69
2022/12/11 12:07:40;;;;;;;3.38;2.08;;;0.10;99.90;;;;;;4940384;29;20227;-68
2022/12/11 12:10:19;;;;;;;2.35;0.85;;;0.20;99.90;;;;;;4946616;29;20211;-68
2022/12/11 12:12:52;;;;;;;4.38;2.00;;;0.20;99.90;;;;;;4936388;29;20314;-68
2022/12/11 12:15:31;;;;;;;2.13;2.05;;;0.20;99.90;;;;;;4946963;29;20208;-67
2022/12/11 12:18:07;;;;;;;1.70;1.13;;;0.10;99.90;;;;;;4948629;29;20298;-68
2022/12/11 12:20:40;;;;;;;3.38;0.85;;;0.20;99.90;;;;;;4950731;29;20245;-68
2022/12/11 12:23:31;;;;;;;7.05;4.43;;;0.20;99.90;;;;;;4934804;29;20204;-69
2022/12/11 12:26:04;;;;;;;1.02;1.02;;;0.20;99.90;;;;;;4949978;29;20224;-69
2022/12/11 12:28:39;;;;;;;1.20;1.15;;;0.20;99.90;;;;;;4949537;29;20299;-69
2022/12/11 12:31:20;;;;;;;0.85;0.85;;;0.40;99.90;;;;;;4947762;29;20638;-68
2022/12/11 12:33:58;;;;;;;2.35;2.15;;;0.50;99.90;;;;;;4945328;29;20215;-69
2022/12/11 12:36:33;;;;;;;1.75;1.75;;;0.50;99.90;;;;;;4935975;29;20299;-68
2022/12/11 12:39:02;;;;;;;1.92;1.92;;;0.60;99.90;;;;;;4935542;29;20541;-68
2022/12/11 12:41:40;;;;;;;1.05;1.05;;;0.60;99.90;;;;;;4933976;29;20235;-68
2022/12/11 12:44:14;;;;;;;2.05;1.95;;;0.70;99.90;;;;;;4946559;29;20219;-68
2022/12/11 12:46:57;;;;;;;1.85;1.85;;;0.60;99.90;;;;;;4947079;29;20236;-68
2022/12/11 12:49:36;;;;;;;5.88;1.65;;;0.70;99.90;;;;;;4935543;29;20266;-67
2022/12/11 12:52:04;;;;;;;1.02;1.02;;;0.60;99.90;;;;;;4942106;29;20201;-70
2022/12/11 12:54:33;;;;;;;2.85;2.28;;;0.60;99.90;;;;;;4943969;29;20225;-69
2022/12/11 12:57:02;;;;;;;3.75;3.58;;;0.60;99.90;;;;;;4940039;29;20234;-69
2022/12/11 12:59:29;;;;;;;2.33;2.17;;;0.50;99.90;;;;;;4950424;29;20234;-68
2022/12/11 13:01:58;;;;;;;2.58;0.95;;;0.50;99.90;;;;;;4950116;29;20214;-67
2022/12/11 13:04:45;;;;;;;2.65;1.23;;;0.50;99.90;;;;;;4946741;29;20232;-67
2022/12/11 13:07:17;;;;;;;4.03;2.85;;;0.50;99.90;;;;;;4935790;29;20260;-68
2022/12/11 13:09:55;;;;;;;1.95;1.30;;;0.60;99.90;;;;;;4938580;28;20202;-68
2022/12/11 13:12:33;;;;;;;2.22;2.08;;;0.60;99.90;;;;;;4951784;29;20192;-69
2022/12/11 13:15:01;;;;;;;1.17;1.13;;;0.50;99.90;;;;;;4953584;29;20310;-69
2022/12/11 13:17:36;;;;;;;2.97;2.70;;;0.50;99.90;;;;;;4943318;29;20601;-68
2022/12/11 13:20:16;;;;;;;1.58;1.58;;;0.50;99.90;;;;;;4943945;29;20228;-69
2022/12/11 13:22:53;;;;;;;2.30;2.20;;;0.50;99.90;;;;;;4950157;29;20267;-69
2022/12/11 13:25:27;;;;;;;2.30;1.77;;;0.50;99.90;;;;;;4956071;29;20299;-67
2022/12/11 13:28:05;;;;;;;1.75;1.23;;;0.50;99.90;;;;;;4947243;29;20214;-68
2022/12/11 13:30:32;;;;;;;2.40;1.08;;;0.50;99.90;;;;;;4957497;29;20197;-68
2022/12/11 13:33:04;;;;;;;3.45;3.00;;;0.60;99.90;;;;;;4946255;29;20208;-68
2022/12/11 13:35:33;;;;;;;2.10;2.00;;;0.60;99.90;;;;;;4938587;29;20225;-67
2022/12/11 13:38:04;;;;;;;16.48;4.82;;;0.60;99.90;;;;;;4952630;29;20244;-68
2022/12/11 13:40:40;;;;;;;2.25;1.58;;;0.50;99.90;;;;;;4955187;29;20225;-67
2022/12/11 13:43:18;;;;;;;3.85;3.63;;;0.60;99.90;;;;;;4944165;29;20631;-67
2022/12/11 13:45:49;;;;;;;1.67;1.58;;;0.70;99.90;;;;;;4953789;29;20342;-67
2022/12/11 13:48:21;;;;;;;2.85;2.75;;;0.70;99.90;;;;;;4948106;29;20216;-67
2022/12/11 13:50:49;;;;;;;6.53;4.55;;;0.80;99.90;;;;;;4949422;29;20223;-67
2022/12/11 13:53:18;;;;;;;3.33;2.53;;;0.80;99.90;;;;;;4942442;29;20312;-67
2022/12/11 13:55:45;;;;;;;1.85;1.75;;;0.80;99.90;;;;;;4949862;29;20225;-68
2022/12/11 13:58:20;;;;;;;2.38;1.23;;;0.90;99.90;;;;;;4952640;29;20280;-67
2022/12/11 14:01:02;;;;;;;9.70;3.75;;;0.80;99.90;;;;;;4937162;29;20218;-68
2022/12/11 14:03:31;;;;;;;7.00;2.08;;;0.80;99.90;;;;;;4952805;29;20299;-68
2022/12/11 14:05:58;;;;;;;1.00;1.00;;;0.80;99.90;;;;;;4950725;28;20228;-67
2022/12/11 14:08:31;;;;;;;7.32;3.53;;;0.80;99.90;;;;;;4954520;29;20532;-68
2022/12/11 14:10:58;;;;;;;1.67;1.67;;;0.70;99.90;;;;;;4938679;29;20198;-67
2022/12/11 14:13:31;;;;;;;2.35;2.25;;;0.70;99.90;;;;;;4948940;29;20205;-68
2022/12/11 14:15:58;;;;;;;1.20;1.20;;;0.70;99.90;;;;;;4945381;29;20721;-69
2022/12/11 14:18:29;;;;;;;4.70;2.60;;;0.70;99.90;;;;;;4951880;29;20212;-69
2022/12/11 14:20:57;;;;;;;3.03;2.78;;;0.60;99.90;;;;;;4945311;29;20607;-69
2022/12/11 14:23:26;;;;;;;3.58;3.28;;;0.60;99.90;;;;;;4947063;29;20201;-68
2022/12/11 14:25:54;;;;;;;4.18;3.90;;;0.50;99.90;;;;;;4936491;29;20289;-68
2022/12/11 14:28:22;;;;;;;3.00;2.90;;;0.50;99.90;;;;;;4948576;29;20666;-68
2022/12/11 14:30:52;;;;;;;1.35;1.35;;;0.50;99.90;;;;;;4947150;29;20201;-67
2022/12/11 14:33:22;;;;;;;1.70;1.70;;;0.40;99.90;;;;;;4937232;29;20654;-69
2022/12/11 14:35:50;;;;;;;0.63;0.63;;;0.40;99.90;;;;;;4948281;29;20236;-68
2022/12/11 14:38:19;;;;;;;3.95;3.05;;;0.40;99.90;;;;;;4956631;28;20670;-68
2022/12/11 14:40:51;;;;;;;4.20;2.60;;;0.40;99.90;;;;;;4951798;29;20236;-69
2022/12/11 14:43:22;;;;;;;2.72;2.47;;;0.40;99.90;;;;;;4954770;28;20213;-69
2022/12/11 14:45:57;;;;;;;1.92;1.83;;;0.50;99.90;;;;;;4952301;29;20224;-68
2022/12/11 14:48:30;;;;;;;6.32;2.78;;;0.50;99.90;;;;;;4950630;29;20549;-69
2022/12/11 14:51:01;;;;;;;3.95;3.58;;;0.40;99.90;;;;;;4943997;29;20283;-69
2022/12/11 14:53:30;;;;;;;2.53;2.42;;;0.40;99.90;;;;;;4952028;29;20268;-69
2022/12/11 14:56:01;;;;;;;10.75;1.33;;;0.30;99.90;;;;;;4941541;29;20235;-69
2022/12/11 14:58:28;;;;;;;6.55;6.03;;;0.30;99.90;;;;;;4950650;29;20208;-69
2022/12/11 15:01:01;;;;;;;2.63;2.53;;;0.30;99.90;;;;;;4953965;28;20483;-70
2022/12/11 15:03:33;;;;;;;11.98;4.18;;;0.40;99.90;;;;;;4951210;28;20215;-69
2022/12/11 15:06:00;;;;;;;9.70;4.20;;;0.40;99.90;;;;;;4947820;28;20474;-68
2022/12/11 15:08:29;;;;;;;4.57;2.65;;;0.40;99.90;;;;;;4942460;29;20564;-67
2022/12/11 15:11:02;;;;;;;6.88;4.32;;;0.40;99.90;;;;;;4949253;29;20292;-68
2022/12/11 15:13:29;;;;;;;1.65;1.55;;;0.40;99.90;;;;;;4943426;29;20296;-67
2022/12/11 15:15:57;;;;;;;3.38;3.15;;;0.40;99.90;;;;;;4934786;29;20300;-68
2022/12/11 15:18:28;;;;;;;2.45;2.45;;;0.40;99.90;;;;;;4948741;28;20234;-67
2022/12/11 15:20:57;;;;;;;2.30;2.10;;;0.40;99.90;;;;;;4947547;29;20232;-68
2022/12/11 15:23:24;;;;;;;2.95;2.35;;;0.40;99.90;;;;;;4942907;28;20695;-67
2022/12/11 15:25:52;;;;;;;7.68;2.88;;;0.30;99.90;;;;;;4945750;29;20565;-68
2022/12/11 15:28:30;;;;;;;2.75;2.65;;;0.30;99.90;;;;;;4944915;29;20648;-68
2022/12/11 15:30:59;;;;;;;5.30;2.38;;;0.30;99.90;;;;;;4945065;29;20270;-68
2022/12/11 15:33:28;;;;;;;6.63;6.13;;;0.30;99.90;;;;;;4944938;29;20535;-67
2022/12/11 15:35:58;;;;;;;4.72;4.40;;;0.30;99.90;;;;;;4948409;29;20601;-67
2022/12/11 15:38:34;;;;;;;2.78;2.28;;;0.30;99.90;;;;;;4944645;29;20211;-66
2022/12/11 15:41:02;;;;;;;6.18;3.78;;;0.30;99.90;;;;;;4949784;29;20364;-67
2022/12/11 15:43:32;;;;;;;3.40;2.65;;;0.30;99.90;;;;;;4948985;28;20275;-67
2022/12/11 15:45:58;;;;;;;3.10;2.72;;;0.30;99.90;;;;;;4948177;29;20315;-66
2022/12/11 15:48:26;;;;;;;1.77;1.63;;;0.30;99.90;;;;;;4945660;29;20572;-68
2022/12/11 15:50:53;;;;;;;3.20;1.92;;;0.30;99.90;;;;;;4943788;29;20212;-68
2022/12/11 15:53:20;;;;;;;3.53;3.42;;;0.30;99.90;;;;;;4942322;29;20249;-69
2022/12/11 15:55:47;;;;;;;5.03;1.70;;;0.30;99.90;;;;;;4936125;29;20274;-69
2022/12/11 15:58:17;;;;;;;4.60;1.88;;;0.30;99.90;;;;;;4936433;29;20584;-69
2022/12/11 16:00:43;;;;;;;6.95;3.85;;;0.30;99.90;;;;;;4944526;29;20298;-68
2022/12/11 16:03:12;;;;;;;8.95;5.55;;;0.20;99.90;;;;;;4947309;29;20223;-68
2022/12/11 16:05:41;;;;;;;4.22;3.25;;;0.30;99.90;;;;;;4941324;29;20343;-68
2022/12/11 16:08:09;;;;;;;2.67;2.53;;;0.20;99.90;;;;;;4935435;29;20284;-68
2022/12/11 16:10:36;;;;;;;2.05;2.05;;;0.20;99.90;;;;;;4935519;29;20611;-68
2022/12/11 16:13:03;;;;;;;7.70;3.13;;;0.20;99.90;;;;;;4945725;28;20215;-68
2022/12/11 16:15:30;;;;;;;3.70;3.47;;;0.20;99.90;;;;;;4939144;29;20535;-68
2022/12/11 16:18:01;;;;;;;5.70;3.45;;;0.20;99.90;;;;;;4940500;29;20602;-67
2022/12/11 16:20:29;;;;;;;4.25;3.35;;;0.20;99.90;;;;;;4945434;29;20220;-69
2022/12/11 16:22:58;;;;;;;3.30;1.95;;;0.20;99.90;;;;;;4935355;29;20216;-68
2022/12/11 16:25:25;;;;;;;8.65;4.18;;;0.10;99.90;;;;;;4939564;29;20216;-69
2022/12/11 16:27:54;;;;;;;9.88;4.32;;;0.10;99.90;;;;;;4945780;29;20262;-68
2022/12/11 16:30:21;;;;;;;6.05;5.65;;;0.10;99.90;;;;;;4941730;29;20203;-68
2022/12/11 16:32:48;;;;;;;6.03;4.78;;;0.10;99.90;;;;;;4943231;29;20208;-67
2022/12/11 16:35:14;;;;;;;3.20;2.95;;;0.10;99.90;;;;;;4946030;28;20218;-69
2022/12/11 16:37:41;;;;;;;5.72;4.95;;;0.10;99.90;;;;;;4949445;29;20213;-69
2022/12/11 16:40:11;;;;;;;3.03;2.13;;;0.10;99.90;;;;;;4946923;29;20208;-68
2022/12/11 16:42:38;;;;;;;15.57;6.28;;;0.10;99.90;;;;;;4948126;29;20572;-68
2022/12/11 16:45:07;;;;;;;3.60;3.38;;;0.10;99.90;;;;;;4948261;29;20207;-68
2022/12/11 16:47:34;;;;;;;5.65;3.40;;;0.10;99.90;;;;;;4939381;29;20204;-68
2022/12/11 16:50:00;;;;;;;3.70;2.28;;;0.10;99.90;;;;;;4945660;29;20659;-67
2022/12/11 16:52:27;;;;;;;3.65;3.03;;;0.10;99.90;;;;;;4944218;29;20299;-66
2022/12/11 16:54:54;;;;;;;7.03;3.00;;;0.10;99.90;;;;;;4952333;28;20223;-67
2022/12/11 16:57:22;;;;;;;4.60;4.38;;;0.10;99.90;;;;;;4954935;28;20310;-67
2022/12/11 16:59:49;;;;;;;1.95;1.95;;;0.10;99.90;;;;;;4953400;28;20634;-67
2022/12/11 17:02:15;;;;;;;6.88;3.25;;;0.10;99.90;;;;;;4951645;29;20645;-68
2022/12/11 17:04:42;;;;;;;8.50;3.05;;;0.00;99.90;;;;;;4952938;29;20205;-66
2022/12/11 17:07:09;;;;;;;7.10;3.53;;;0.10;99.90;;;;;;4953875;29;20232;-67
2022/12/11 17:09:36;;;;;;;1.25;1.25;;;0.00;99.90;;;;;;4953134;29;20216;-68
2022/12/11 17:12:02;;;;;;;3.33;3.13;;;0.00;99.90;;;;;;4952602;29;20325;-67
2022/12/11 17:14:31;;;;;;;4.15;3.80;;;0.00;99.90;;;;;;4954780;29;20694;-67
2022/12/11 17:16:57;;;;;;;15.95;4.25;;;-0.10;99.90;;;;;;4947734;29;20273;-68
2022/12/11 17:19:24;;;;;;;2.13;2.03;;;0.00;99.90;;;;;;4955465;29;20216;-67
2022/12/11 17:21:52;;;;;;;8.02;5.22;;;0.00;99.90;;;;;;4955151;29;20239;-67
2022/12/11 17:24:20;;;;;;;2.53;2.42;;;0.00;99.90;;;;;;4952256;29;20208;-67
2022/12/11 17:26:46;;;;;;;7.22;3.33;;;0.00;99.90;;;;;;4953519;29;20254;-68
2022/12/11 17:29:13;;;;;;;2.75;2.58;;;0.00;99.90;;;;;;4949549;29;20225;-67
2022/12/11 17:31:41;;;;;;;1.92;1.83;;;0.00;99.90;;;;;;4951716;29;20215;-69
2022/12/11 17:34:08;;;;;;;8.18;4.35;;;0.00;99.90;;;;;;4951761;29;20223;-68
2022/12/11 17:36:35;;;;;;;5.53;5.05;;;0.00;99.90;;;;;;4943262;28;20706;-68
2022/12/11 17:39:01;;;;;;;3.35;3.15;;;0.00;99.90;;;;;;4942553;29;20216;-68
2022/12/11 17:41:28;;;;;;;3.50;3.30;;;0.00;99.90;;;;;;4954329;29;20263;-67
2022/12/11 17:43:55;;;;;;;9.38;2.63;;;0.00;99.90;;;;;;4955002;29;20212;-69
2022/12/11 17:46:22;;;;;;;6.28;5.07;;;0.00;99.90;;;;;;4953586;29;20236;-68
2022/12/11 17:48:50;;;;;;;16.15;4.32;;;0.10;99.90;;;;;;4950147;29;20307;-69
2022/12/11 17:51:22;;;;;;;3.78;3.42;;;0.00;99.90;;;;;;4950880;29;20217;-68
2022/12/11 17:53:49;;;;;;;3.38;2.42;;;0.10;99.90;;;;;;4941612;29;20292;-68
2022/12/11 17:56:16;;;;;;;8.25;4.75;;;0.00;99.90;;;;;;4940411;29;20239;-68
2022/12/11 17:58:43;;;;;;;5.13;4.82;;;0.10;99.90;;;;;;4939760;29;20248;-68
2022/12/11 18:01:11;;;;;;;6.10;5.65;;;0.10;99.90;;;;;;4937768;29;20229;-68
2022/12/11 18:03:38;;;;;;;4.90;4.60;;;0.10;99.90;;;;;;4947202;29;20648;-68
2022/12/11 18:06:09;;;;;;;1.48;1.48;;;0.10;99.90;;;;;;4948189;28;20225;-68